Time;durP1;ratioP1;P1;durP2;ratioP2;P2;SDS_P1;SDS_P2;PMS_P1;PMS_P2;Temp;Humidity;BMP_temperature;BMP_pressure;BME280_temperature;BME280_humidity;BME280_pressure;Samples;Min_cycle;Max_cycle;Signal;HPM_P1;HPM_P2
2021/03/10 07:34:33;;;;;;;;;;;;;;;;;;;;;
2021/03/10 08:12:22;;;;;;;46.50;18.15;;;;;;;2.39;51.59;101710.03;4884782;29;20156;-88
2021/03/10 08:23:07;;;;;;;45.78;16.00;;;;;;;2.54;51.31;101705.00;4844924;23;20060;-70
2021/03/10 08:25:34;;;;;;;51.80;17.90;;;;;;;2.63;50.83;101705.03;5020724;28;20029;-69
2021/03/10 08:28:13;;;;;;;49.05;17.55;;;;;;;2.77;50.49;101705.97;5002636;28;20167;-70
2021/03/10 08:30:41;;;;;;;40.80;17.73;;;;;;;2.86;50.01;101701.75;5003600;28;20041;-71
2021/03/10 08:33:08;;;;;;;50.03;17.30;;;;;;;2.52;50.29;101680.88;5018765;28;20025;-70
2021/03/10 08:35:34;;;;;;;42.85;18.30;;;;;;;2.57;50.71;101689.50;5015489;28;20025;-70
2021/03/10 08:38:02;;;;;;;46.92;19.25;;;;;;;2.97;50.07;101689.75;5022796;28;20442;-70
2021/03/10 08:40:30;;;;;;;46.85;18.58;;;;;;;3.08;49.47;101685.50;5018288;28;20414;-70
2021/03/10 08:42:57;;;;;;;42.67;18.85;;;;;;;3.08;49.29;101687.22;5018771;28;20042;-70
2021/03/10 08:45:27;;;;;;;44.50;16.55;;;;;;;3.40;48.75;101689.94;5019403;28;20017;-70
2021/03/10 08:48:03;;;;;;;37.58;15.48;;;;;;;3.32;48.50;101673.56;5020035;28;20041;-70
2021/03/10 08:50:41;;;;;;;40.92;16.05;;;;;;;3.41;48.40;101664.97;5034939;28;20184;-71
2021/03/10 08:53:08;;;;;;;35.30;15.52;;;;;;;3.36;48.76;101654.63;5022227;28;20028;-70
2021/03/10 08:55:36;;;;;;;38.20;18.02;;;;;;;2.84;50.53;101656.97;5004672;28;20088;-70
2021/03/10 08:58:12;;;;;;;44.75;17.13;;;;;;;3.20;49.38;101656.25;5019781;28;20602;-70
2021/03/10 09:00:39;;;;;;;50.42;18.50;;;;;;;3.47;48.95;101645.19;5015548;28;20033;-70
2021/03/10 09:03:23;;;;;;;45.63;17.88;;;;;;;3.41;49.28;101629.66;5016031;28;20090;-70
2021/03/10 09:05:52;;;;;;;43.00;18.20;;;;;;;3.57;49.30;101631.38;5011644;28;20029;-70
2021/03/10 09:08:26;;;;;;;47.13;16.25;;;;;;;3.82;49.06;101633.16;5016048;28;20044;-70
2021/03/10 09:10:59;;;;;;;39.72;16.15;;;;;;;3.74;48.52;101630.56;5017517;28;20044;-69
2021/03/10 09:13:41;;;;;;;36.42;16.77;;;;;;;3.19;49.80;101626.97;5019700;28;20061;-69
2021/03/10 09:16:10;;;;;;;35.33;16.17;;;;;;;3.65;48.97;101628.84;5018504;28;20033;-70
2021/03/10 09:18:41;;;;;;;41.55;17.02;;;;;;;3.33;49.87;101627.03;5019096;28;20449;-70
2021/03/10 09:21:07;;;;;;;39.75;17.58;;;;;;;3.76;49.50;101628.81;5023509;28;20396;-70
2021/03/10 09:23:39;;;;;;;;;;;;;;;4.20;48.48;101622.75;5008906;28;20036;-70
2021/03/10 09:26:06;;;;;;;40.63;17.23;;;;;;;4.34;48.22;101617.56;5010276;28;19924;-71
2021/03/10 09:28:45;;;;;;;41.72;17.75;;;;;;;4.07;48.59;101626.22;5022752;28;20730;-69
2021/03/10 09:31:19;;;;;;;42.10;18.42;;;;;;;2.30;52.49;101621.41;5005019;28;20025;-70
2021/03/10 09:33:58;;;;;;;39.78;18.63;;;;;;;3.96;48.81;101624.53;5025611;28;20029;-70
2021/03/10 09:36:27;;;;;;;37.70;17.27;;;;;;;3.09;50.48;101616.59;5028363;28;20105;-70
2021/03/10 09:38:59;;;;;;;37.85;17.85;;;;;;;3.80;49.67;101612.44;5026054;28;20030;-69
2021/03/10 09:41:34;;;;;;;34.67;16.40;;;;;;;4.35;48.27;101617.56;5023312;28;20301;-70
2021/03/10 09:44:06;;;;;;;35.58;16.50;;;;;;;4.27;48.56;101613.28;5006303;28;20041;-70
2021/03/10 09:46:43;;;;;;;40.28;17.15;;;;;;;4.38;48.20;101599.44;5003140;28;20046;-70
2021/03/10 09:49:11;;;;;;;38.03;17.30;;;;;;;3.94;49.19;101599.50;5021770;28;20060;-70
2021/03/10 09:51:46;;;;;;;33.92;16.83;;;;;;;3.86;49.74;101602.09;5002847;28;20037;-71
2021/03/10 09:54:12;;;;;;;37.95;16.23;;;;;;;4.37;48.57;101595.13;5024281;28;20027;-70
2021/03/10 09:56:49;;;;;;;42.13;17.60;;;;;;;4.32;48.40;101583.94;5020984;28;20026;-70
2021/03/10 09:59:15;;;;;;;35.58;16.65;;;;;;;3.75;50.36;101589.19;5017396;28;20169;-69
2021/03/10 10:01:47;;;;;;;31.30;15.57;;;;;;;4.23;48.47;101581.38;5016780;28;20778;-70
2021/03/10 10:04:27;;;;;;;37.63;16.48;;;;;;;4.44;47.79;101580.44;5023204;28;20034;-69
2021/03/10 10:06:53;;;;;;;39.28;16.00;;;;;;;3.92;49.65;101576.25;5023319;28;20045;-69
2021/03/10 10:09:23;;;;;;;31.95;14.13;;;;;;;4.06;49.48;101588.31;5006760;28;20080;-69
2021/03/10 10:11:48;;;;;;;34.72;15.10;;;;;;;4.60;48.40;101582.09;5021175;28;20083;-70
2021/03/10 10:14:15;;;;;;;36.65;14.82;;;;;;;4.46;47.72;101583.91;5017565;28;20125;-70
2021/03/10 10:16:41;;;;;;;31.52;13.60;;;;;;;4.96;47.09;101577.66;5019789;28;20113;-70
2021/03/10 10:19:14;;;;;;;28.77;13.77;;;;;;;4.89;48.13;101573.38;5023336;28;20272;-70
2021/03/10 10:21:41;;;;;;;27.92;12.32;;;;;;;4.62;48.41;101567.44;5003389;28;20061;-69
2021/03/10 10:24:08;;;;;;;30.80;13.38;;;;;;;5.05;46.80;101563.78;5018273;28;20124;-70
2021/03/10 10:26:33;;;;;;;30.23;13.48;;;;;;;3.92;49.80;101555.56;5008698;28;20032;-69
2021/03/10 10:28:59;;;;;;;27.35;13.38;;;;;;;4.69;47.94;101555.31;5021320;28;21189;-70
2021/03/10 10:31:28;;;;;;;28.08;14.10;;;;;;;4.21;49.25;101547.72;5021653;28;20129;-71
2021/03/10 10:33:55;;;;;;;24.92;13.82;;;;;;;3.96;50.30;101554.69;5003247;28;20109;-70
2021/03/10 10:36:20;;;;;;;30.50;13.65;;;;;;;4.63;48.48;101550.16;5009080;28;20501;-70
2021/03/10 10:38:48;;;;;;;26.90;13.93;;;;;;;4.45;48.75;101551.09;5005241;28;20033;-70
2021/03/10 10:41:14;;;;;;;30.65;14.32;;;;;;;5.08;47.60;101556.03;5019953;28;20064;-70
2021/03/10 10:43:40;;;;;;;26.30;13.40;;;;;;;5.03;47.48;101558.66;5016923;28;20577;-70
2021/03/10 10:46:10;;;;;;;27.70;12.93;;;;;;;4.97;47.69;101555.22;5002434;28;20041;-70
2021/03/10 10:48:43;;;;;;;34.17;14.70;;;;;;;5.63;45.96;101552.16;4999262;28;20033;-70
2021/03/10 10:51:19;;;;;;;31.20;14.43;;;;;;;4.94;46.98;101550.03;4998784;28;20033;-70
2021/03/10 10:54:00;;;;;;;24.83;14.07;;;;;;;5.53;46.08;101551.38;5016633;28;20033;-71
2021/03/10 10:56:26;;;;;;;31.17;14.30;;;;;;;5.38;46.11;101562.72;5008577;28;20038;-70
2021/03/10 10:58:53;;;;;;;26.13;13.18;;;;;;;4.62;48.36;101559.66;5019946;28;20040;-70
2021/03/10 11:01:21;;;;;;;30.48;13.48;;;;;;;5.62;46.42;101561.66;5004037;28;20627;-70
2021/03/10 11:03:47;;;;;;;25.02;13.60;;;;;;;5.69;46.25;101559.03;5014806;28;20032;-70
2021/03/10 11:06:12;;;;;;;28.77;14.70;;;;;;;5.72;45.42;101561.59;5022001;28;20076;-70
2021/03/10 11:08:44;;;;;;;26.23;12.27;;;;;;;5.63;45.52;101558.19;5003392;28;20025;-70
2021/03/10 11:11:10;;;;;;;26.73;13.07;;;;;;;6.04;45.13;101543.16;4999939;28;20029;-70
2021/03/10 11:13:37;;;;;;;30.90;14.65;;;;;;;5.52;46.09;101559.16;5017561;28;20033;-70
2021/03/10 11:16:11;;;;;;;27.38;14.30;;;;;;;5.04;48.00;101546.53;5017707;28;20048;-70
2021/03/10 11:18:55;;;;;;;23.73;12.65;;;;;;;5.98;45.85;101541.44;5024489;28;20033;-70
2021/03/10 11:21:21;;;;;;;28.00;13.25;;;;;;;6.00;46.04;101528.47;5020381;28;20029;-71
2021/03/10 11:23:47;;;;;;;30.10;15.32;;;;;;;6.02;46.16;101524.97;5018989;28;20026;-71
2021/03/10 11:26:13;;;;;;;35.70;17.10;;;;;;;5.39;47.54;101524.69;5019162;28;20038;-71
2021/03/10 11:28:40;;;;;;;31.80;15.55;;;;;;;4.43;49.48;101520.06;5000309;28;20060;-70
2021/03/10 11:31:09;;;;;;;35.47;15.45;;;;;;;5.90;46.73;101511.25;5022276;28;20116;-70
2021/03/10 11:33:35;;;;;;;31.55;15.20;;;;;;;6.05;46.08;101509.38;5015907;28;20029;-70
2021/03/10 11:36:07;;;;;;;31.30;14.80;;;;;;;5.52;48.19;101507.31;5007964;28;20056;-71
2021/03/10 11:38:37;;;;;;;34.83;16.10;;;;;;;5.89;47.63;101484.47;5022560;28;20041;-70
2021/03/10 11:41:04;;;;;;;29.42;15.07;;;;;;;5.90;46.84;101485.31;5008157;28;20042;-70
2021/03/10 11:43:30;;;;;;;32.60;14.82;;;;;;;5.93;47.48;101486.16;5018979;28;20095;-70
2021/03/10 11:45:55;;;;;;;36.17;17.02;;;;;;;5.61;47.48;101481.28;5037815;28;20068;-71
2021/03/10 11:48:21;;;;;;;32.53;16.05;;;;;;;5.33;48.35;101483.28;5016950;28;20522;-71
2021/03/10 11:50:46;;;;;;;34.70;15.50;;;;;;;5.89;47.72;101476.69;5000466;28;20444;-71
2021/03/10 11:53:13;;;;;;;29.50;14.77;;;;;;;5.96;47.21;101462.75;5015889;28;20375;-71
2021/03/10 11:55:38;;;;;;;30.70;15.23;;;;;;;6.21;46.11;101460.72;5014029;28;20037;-71
2021/03/10 11:58:04;;;;;;;33.75;17.08;;;;;;;6.11;46.78;101460.88;5000067;28;20066;-71
2021/03/10 12:00:31;;;;;;;31.35;15.65;;;;;;;5.94;47.90;101464.50;5014445;28;20062;-71
2021/03/10 12:03:03;;;;;;;34.30;16.25;;;;;;;5.47;48.35;101465.84;5016576;28;20676;-71
2021/03/10 12:05:46;;;;;;;34.63;16.98;;;;;;;5.71;48.67;101466.50;5001758;28;20111;-71
2021/03/10 12:08:12;;;;;;;28.85;15.50;;;;;;;5.58;48.50;101469.22;5000420;28;20042;-71
2021/03/10 12:10:40;;;;;;;34.60;15.45;;;;;;;5.94;47.44;101461.91;5015603;28;20038;-71
2021/03/10 12:13:07;;;;;;;31.70;15.43;;;;;;;6.75;45.81;101469.56;5013341;28;20039;-70
2021/03/10 12:15:32;;;;;;;32.83;15.20;;;;;;;6.83;45.54;101463.38;5005305;28;20033;-69
2021/03/10 12:17:58;;;;;;;32.63;15.00;;;;;;;5.86;47.94;101456.81;5016586;28;20187;-69
2021/03/10 12:20:24;;;;;;;35.05;17.02;;;;;;;5.90;48.10;101452.44;5020045;28;20080;-69
2021/03/10 12:22:49;;;;;;;35.47;16.38;;;;;;;5.25;48.76;101450.47;5017729;28;20543;-70
2021/03/10 12:25:15;;;;;;;36.83;17.10;;;;;;;5.72;48.04;101450.06;5016121;28;20094;-71
2021/03/10 12:27:40;;;;;;;38.50;18.75;;;;;;;5.42;48.11;101447.75;5016185;28;20117;-70
2021/03/10 12:30:07;;;;;;;39.35;18.20;;;;;;;5.28;48.87;101451.34;5021209;28;20068;-72
2021/03/10 12:32:36;;;;;;;35.03;15.45;;;;;;;6.20;47.22;101445.19;5001909;28;20033;-70
2021/03/10 12:35:03;;;;;;;32.63;16.05;;;;;;;6.46;46.70;101437.97;5007503;28;20589;-70
2021/03/10 12:37:28;;;;;;;37.25;17.48;;;;;;;6.03;47.03;101422.03;5011844;28;20034;-72
2021/03/10 12:39:55;;;;;;;32.45;15.68;;;;;;;6.49;46.22;101422.31;5015853;28;20446;-71
2021/03/10 12:42:20;;;;;;;29.85;16.25;;;;;;;6.49;46.41;101421.47;5014188;28;20032;-71
2021/03/10 12:44:46;;;;;;;32.65;15.30;;;;;;;6.19;48.01;101417.50;5022065;28;20071;-72
2021/03/10 12:47:12;;;;;;;34.38;17.33;;;;;;;6.58;46.66;101420.47;5019739;28;20116;-70
2021/03/10 12:49:37;;;;;;;33.78;17.10;;;;;;;5.88;48.17;101417.88;5013267;28;20528;-71
2021/03/10 12:52:03;;;;;;;36.17;17.10;;;;;;;6.60;46.36;101418.72;5018975;28;20033;-71
2021/03/10 12:54:29;;;;;;;30.70;16.42;;;;;;;6.45;46.64;101412.00;5018476;28;20080;-71
2021/03/10 12:56:55;;;;;;;35.38;16.73;;;;;;;6.82;46.17;101411.44;5019699;28;20069;-70
2021/03/10 12:59:24;;;;;;;37.00;16.83;;;;;;;6.89;46.35;101406.13;5019371;28;20041;-71
2021/03/10 13:01:50;;;;;;;35.65;16.55;;;;;;;6.84;46.11;101397.56;5016259;28;20456;-70
2021/03/10 13:04:16;;;;;;;32.55;17.58;;;;;;;5.36;50.09;101401.16;5020240;28;20507;-70
2021/03/10 13:06:42;;;;;;;40.17;16.77;;;;;;;5.88;48.71;101402.31;5015312;28;20037;-71
2021/03/10 13:09:08;;;;;;;35.15;17.52;;;;;;;5.77;49.22;101393.78;5020485;28;20056;-70
2021/03/10 13:11:34;;;;;;;33.17;16.85;;;;;;;4.91;51.58;101379.09;5000714;28;20037;-70
2021/03/10 13:14:00;;;;;;;40.88;17.60;;;;;;;5.50;50.55;101375.06;5019360;28;20033;-70
2021/03/10 13:16:26;;;;;;;36.22;16.38;;;;;;;4.91;51.89;101384.28;5019375;28;20068;-70
2021/03/10 13:18:52;;;;;;;38.15;16.23;;;;;;;5.24;51.31;101375.34;5002664;28;20699;-70
2021/03/10 13:21:18;;;;;;;34.50;18.35;;;;;;;4.97;52.27;101373.88;5008676;28;20041;-70
2021/03/10 13:23:44;;;;;;;35.53;17.67;;;;;;;5.29;51.74;101364.94;5020021;28;20041;-71
2021/03/10 13:26:10;;;;;;;40.38;18.35;;;;;;;5.45;51.48;101361.31;5000262;28;20091;-70
2021/03/10 13:28:37;;;;;;;42.33;19.17;;;;;;;5.98;50.20;101366.75;5008281;28;20068;-70
2021/03/10 13:31:03;;;;;;;36.38;17.55;;;;;;;5.95;50.42;101348.59;5016036;28;20096;-70
2021/03/10 13:33:30;;;;;;;39.03;17.45;;;;;;;5.76;50.46;101335.03;5024531;28;20116;-70
2021/03/10 13:35:56;;;;;;;34.15;17.23;;;;;;;5.81;50.50;101328.88;5016082;28;20045;-70
2021/03/10 13:38:21;;;;;;;35.97;17.02;;;;;;;5.87;50.34;101333.16;5020670;28;20033;-70
2021/03/10 13:40:47;;;;;;;31.63;16.50;;;;;;;5.59;51.03;101323.13;5018493;28;20093;-70
2021/03/10 13:43:14;;;;;;;35.80;17.58;;;;;;;5.97;50.21;101329.56;5016098;28;20032;-70
2021/03/10 13:45:40;;;;;;;31.80;16.70;;;;;;;5.92;50.23;101315.78;5016932;28;20018;-70
2021/03/10 13:48:06;;;;;;;36.05;16.88;;;;;;;5.91;50.49;101314.06;5007473;28;20051;-70
2021/03/10 13:50:31;;;;;;;34.10;17.52;;;;;;;5.80;50.63;101311.63;5016284;28;20084;-70
2021/03/10 13:52:57;;;;;;;34.20;18.70;;;;;;;4.95;53.47;101313.47;5022982;28;20044;-70
2021/03/10 13:55:23;;;;;;;36.25;17.35;;;;;;;5.32;51.89;101308.72;5017027;28;20037;-70
2021/03/10 13:57:48;;;;;;;35.15;17.23;;;;;;;5.32;52.32;101300.09;5016299;28;20070;-70
2021/03/10 14:00:14;;;;;;;37.47;17.38;;;;;;;5.70;51.82;101293.59;5020862;28;20059;-70
2021/03/10 14:02:40;;;;;;;38.78;17.92;;;;;;;5.49;52.19;101290.41;5014902;28;20037;-70
2021/03/10 14:05:06;;;;;;;37.65;18.27;;;;;;;5.41;52.79;101282.72;5018575;28;20034;-70
2021/03/10 14:07:32;;;;;;;43.50;17.55;;;;;;;5.80;51.77;101284.81;5014410;28;20103;-70
2021/03/10 14:09:58;;;;;;;36.15;18.25;;;;;;;5.76;51.75;101283.16;4999965;28;20041;-69
2021/03/10 14:12:23;;;;;;;35.38;18.20;;;;;;;5.80;52.12;101282.25;5014895;28;20033;-71
2021/03/10 14:14:49;;;;;;;40.38;18.40;;;;;;;5.67;52.33;101284.13;5018939;28;20056;-70
2021/03/10 14:17:14;;;;;;;37.88;18.40;;;;;;;5.24;53.34;101275.13;5019175;28;20045;-70
2021/03/10 14:19:40;;;;;;;40.22;18.90;;;;;;;5.34;53.12;101269.84;5021283;28;20108;-70
2021/03/10 14:22:07;;;;;;;43.03;20.63;;;;;;;5.33;53.19;101266.41;5021001;28;20026;-70
2021/03/10 14:24:33;;;;;;;42.28;20.80;;;;;;;5.18;53.27;101254.47;5012937;28;20045;-70
2021/03/10 14:26:59;;;;;;;39.22;20.45;;;;;;;5.11;53.42;101246.78;5013631;28;20793;-70
2021/03/10 14:29:25;;;;;;;43.58;19.55;;;;;;;5.11;53.72;101247.63;5017570;28;20139;-70
2021/03/10 14:31:50;;;;;;;42.45;19.73;;;;;;;5.10;54.04;101245.06;5028959;28;20444;-69
2021/03/10 14:34:16;;;;;;;38.13;19.90;;;;;;;5.54;52.55;101252.28;5012547;28;20677;-70
2021/03/10 14:36:41;;;;;;;41.10;20.85;;;;;;;4.97;53.56;101241.78;5016293;28;20026;-70
2021/03/10 14:39:07;;;;;;;40.90;20.98;;;;;;;5.37;53.28;101238.69;5014616;28;20593;-70
2021/03/10 14:41:32;;;;;;;46.60;21.10;;;;;;;5.60;52.64;101231.47;5016726;28;20044;-71
2021/03/10 14:44:00;;;;;;;48.40;22.98;;;;;;;5.74;52.27;101227.84;5014623;28;20045;-70
2021/03/10 14:46:27;;;;;;;41.67;19.70;;;;;;;5.74;52.32;101230.44;5008550;28;20057;-69
2021/03/10 14:48:52;;;;;;;44.70;20.95;;;;;;;5.48;52.48;101242.03;5018971;28;20040;-70
2021/03/10 14:51:18;;;;;;;46.50;21.77;;;;;;;5.43;52.41;101228.25;5019688;28;20032;-69
2021/03/10 14:53:43;;;;;;;50.53;23.02;;;;;;;5.38;52.79;101232.66;5019081;28;20152;-69
2021/03/10 14:56:09;;;;;;;47.05;23.08;;;;;;;5.71;51.82;101238.28;4999041;28;20037;-69
2021/03/10 14:58:35;;;;;;;50.35;23.10;;;;;;;4.86;54.34;101246.16;5018343;28;20120;-69
2021/03/10 15:01:00;;;;;;;56.72;23.83;;;;;;;5.32;53.28;101245.66;5007364;28;20155;-69
2021/03/10 15:03:26;;;;;;;49.53;23.60;;;;;;;5.32;52.84;101240.47;5016882;28;20481;-69
2021/03/10 15:05:51;;;;;;;54.03;23.10;;;;;;;5.51;52.37;101231.59;5016467;28;20070;-70
2021/03/10 15:08:17;;;;;;;48.60;23.95;;;;;;;5.51;52.72;101239.38;5016541;28;20032;-70
2021/03/10 15:10:42;;;;;;;50.80;23.08;;;;;;;5.42;52.99;101222.22;5015611;28;20037;-70
2021/03/10 15:13:08;;;;;;;59.83;25.33;;;;;;;5.50;53.12;101222.09;5014631;28;20029;-71
2021/03/10 15:15:34;;;;;;;53.15;25.27;;;;;;;5.05;53.92;101214.03;5006391;28;20040;-70
2021/03/10 15:18:00;;;;;;;54.83;25.83;;;;;;;5.17;53.67;101219.06;5006379;28;20708;-70
2021/03/10 15:20:26;;;;;;;55.53;27.00;;;;;;;5.01;54.15;101201.97;5025849;28;20071;-70
2021/03/10 15:22:51;;;;;;;58.97;26.92;;;;;;;5.30;53.59;101196.47;5011559;28;20073;-70
2021/03/10 15:25:17;;;;;;;54.25;25.67;;;;;;;5.42;53.10;101190.25;5015527;28;21965;-70
2021/03/10 15:27:43;;;;;;;61.15;25.67;;;;;;;5.51;52.64;101186.69;5018972;28;20033;-70
2021/03/10 15:30:12;;;;;;;59.20;26.20;;;;;;;5.25;53.63;101193.91;5013707;28;20487;-70
2021/03/10 15:32:39;;;;;;;54.35;26.98;;;;;;;4.91;53.91;101192.59;5001377;28;20037;-70
2021/03/10 15:35:06;;;;;;;49.97;25.85;;;;;;;4.87;54.33;101181.38;5014099;28;20388;-70
2021/03/10 15:37:34;;;;;;;57.58;25.52;;;;;;;5.14;53.71;101180.22;5014786;28;20037;-69
2021/03/10 15:40:01;;;;;;;56.97;26.73;;;;;;;5.19;53.85;101168.09;5013095;28;20037;-70
2021/03/10 15:42:26;;;;;;;58.75;25.92;;;;;;;5.23;53.39;101163.72;5016496;28;20088;-71
2021/03/10 15:44:54;;;;;;;62.55;29.50;;;;;;;4.92;54.61;101163.22;5012969;28;20485;-69
2021/03/10 15:47:19;;;;;;;56.75;27.42;;;;;;;5.02;54.38;101164.84;5018751;28;20036;-69
2021/03/10 15:49:45;;;;;;;54.95;27.90;;;;;;;5.11;53.74;101154.38;5013206;28;20469;-70
2021/03/10 15:52:10;;;;;;;56.20;27.83;;;;;;;5.01;54.09;101157.94;5005142;28;20034;-70
2021/03/10 15:54:36;;;;;;;58.58;27.73;;;;;;;5.01;54.20;101145.88;5014018;28;20033;-70
2021/03/10 15:57:01;;;;;;;58.10;26.80;;;;;;;4.70;54.89;101142.75;5017365;28;20036;-70
2021/03/10 15:59:27;;;;;;;63.83;28.23;;;;;;;5.13;54.05;101125.84;5014302;28;20156;-70
2021/03/10 16:01:53;;;;;;;59.13;24.77;;;;;;;4.78;54.50;101119.34;5015806;28;20033;-70
2021/03/10 16:04:19;;;;;;;54.83;25.05;;;;;;;4.50;55.65;101114.47;5015184;28;20488;-70
2021/03/10 16:06:44;;;;;;;51.20;25.02;;;;;;;4.80;54.56;101097.72;5022168;28;20060;-70
2021/03/10 16:09:10;;;;;;;51.08;24.60;;;;;;;4.78;54.57;101089.09;5013004;28;20034;-70
2021/03/10 16:11:35;;;;;;;53.85;26.08;;;;;;;4.87;54.45;101071.75;4999068;28;20037;-70
2021/03/10 16:14:01;;;;;;;48.75;22.75;;;;;;;4.58;54.98;101070.38;5016986;28;20057;-70
2021/03/10 16:16:26;;;;;;;53.15;21.33;;;;;;;4.71;54.53;101069.34;5010977;28;20030;-70
2021/03/10 16:18:52;;;;;;;56.85;24.02;;;;;;;4.39;55.45;101069.75;5012543;28;20649;-70
2021/03/10 16:21:17;;;;;;;52.42;23.27;;;;;;;4.44;55.31;101057.59;5022864;28;20072;-70
2021/03/10 16:23:43;;;;;;;50.00;21.75;;;;;;;4.76;55.17;101049.44;5014774;28;20041;-70
2021/03/10 16:26:08;;;;;;;48.95;21.05;;;;;;;3.95;56.57;101038.28;5017990;28;20041;-70
2021/03/10 16:28:34;;;;;;;44.63;22.00;;;;;;;4.50;55.90;101035.94;5022674;28;20781;-70
2021/03/10 16:31:00;;;;;;;55.90;26.45;;;;;;;4.60;55.26;101032.38;5008426;28;20064;-69
2021/03/10 16:33:26;;;;;;;46.78;22.33;;;;;;;4.75;54.88;101031.34;5016955;28;20034;-70
2021/03/10 16:35:52;;;;;;;50.97;21.63;;;;;;;4.71;55.02;101029.66;5019733;28;20029;-69
2021/03/10 16:38:17;;;;;;;44.72;21.88;;;;;;;4.82;54.91;101031.22;5020792;28;20098;-71
2021/03/10 16:40:43;;;;;;;47.45;21.73;;;;;;;4.98;54.41;101033.63;5019696;28;20029;-70
2021/03/10 16:43:09;;;;;;;50.15;21.75;;;;;;;4.49;55.64;101029.91;5022180;28;20060;-71
2021/03/10 16:45:34;;;;;;;51.85;21.80;;;;;;;4.81;54.68;101029.53;5020514;28;20052;-69
2021/03/10 16:48:00;;;;;;;45.78;20.17;;;;;;;4.07;56.51;101028.69;5012428;28;20787;-70
2021/03/10 16:50:26;;;;;;;47.38;21.63;;;;;;;4.63;54.75;101017.69;5021769;28;20046;-71
2021/03/10 16:52:52;;;;;;;46.50;20.33;;;;;;;4.39;55.53;101018.84;5019086;28;20068;-70
2021/03/10 16:55:19;;;;;;;49.13;22.17;;;;;;;4.40;55.64;101020.53;5021258;28;20728;-69
2021/03/10 16:57:44;;;;;;;42.00;21.35;;;;;;;4.54;55.26;101016.91;5019825;28;20687;-70
2021/03/10 17:00:11;;;;;;;46.45;19.35;;;;;;;4.74;54.84;101004.56;5022272;28;20068;-69
2021/03/10 17:02:37;;;;;;;36.83;17.52;;;;;;;4.72;54.76;100996.00;5007447;28;20069;-69
2021/03/10 17:05:04;;;;;;;41.83;19.65;;;;;;;4.67;54.76;100986.56;5020627;28;20029;-70
2021/03/10 17:07:36;;;;;;;41.47;21.27;;;;;;;4.55;55.24;100980.66;5020325;28;20034;-69
2021/03/10 17:10:07;;;;;;;43.08;19.02;;;;;;;4.46;55.28;100980.78;5016937;28;20067;-71
2021/03/10 17:12:34;;;;;;;40.20;19.88;;;;;;;4.38;55.48;100980.88;5004728;28;20533;-71
2021/03/10 17:14:59;;;;;;;42.30;17.83;;;;;;;4.83;54.17;100968.22;5024321;28;20026;-70
2021/03/10 17:17:25;;;;;;;41.35;18.90;;;;;;;4.66;54.90;100969.31;5023717;28;20095;-70
2021/03/10 17:19:50;;;;;;;42.47;18.55;;;;;;;4.52;55.10;100967.78;5024569;28;20037;-70
2021/03/10 17:22:17;;;;;;;34.03;16.95;;;;;;;4.64;54.55;100951.22;5019123;28;20096;-69
2021/03/10 17:24:43;;;;;;;38.10;19.88;;;;;;;4.72;54.50;100944.22;5021895;28;20033;-71
2021/03/10 17:27:09;;;;;;;35.13;17.27;;;;;;;3.80;57.07;100956.53;5023697;28;20449;-70
2021/03/10 17:29:35;;;;;;;39.13;18.35;;;;;;;4.21;55.84;100944.03;5019534;28;20038;-72
2021/03/10 17:32:01;;;;;;;44.10;17.73;;;;;;;4.57;54.83;100929.72;5022323;28;20052;-72
2021/03/10 17:34:26;;;;;;;33.72;16.20;;;;;;;4.55;54.93;100922.88;5019843;28;20425;-70
2021/03/10 17:36:52;;;;;;;36.65;16.63;;;;;;;4.20;56.00;100913.84;5020755;28;20033;-72
2021/03/10 17:39:17;;;;;;;42.33;17.40;;;;;;;4.35;55.15;100902.44;5019017;28;20036;-70
2021/03/10 17:41:43;;;;;;;37.33;15.13;;;;;;;4.19;55.65;100909.56;5019030;28;20543;-71
2021/03/10 17:44:09;;;;;;;31.92;14.93;;;;;;;4.58;54.51;100908.13;5016406;28;20037;-70
2021/03/10 17:46:34;;;;;;;32.67;15.55;;;;;;;4.66;54.21;100908.03;5016634;28;20034;-70
2021/03/10 17:49:00;;;;;;;36.55;14.77;;;;;;;4.35;54.96;100903.28;5004816;28;20546;-71
2021/03/10 17:51:28;;;;;;;32.17;15.25;;;;;;;3.95;56.42;100898.63;5017885;28;20643;-70
2021/03/10 17:53:53;;;;;;;34.00;16.20;;;;;;;4.30;55.40;100894.75;5014390;28;20033;-70
2021/03/10 17:56:19;;;;;;;24.92;14.55;;;;;;;4.64;54.47;100895.09;5015613;28;20530;-70
2021/03/10 17:58:46;;;;;;;29.00;14.82;;;;;;;4.68;54.49;100882.13;5019175;28;20458;-70
2021/03/10 18:01:12;;;;;;;31.75;16.42;;;;;;;4.49;55.04;100878.94;5015898;28;20037;-70
2021/03/10 18:03:38;;;;;;;35.40;15.38;;;;;;;4.74;54.24;100872.50;5019880;28;20022;-71
2021/03/10 18:06:04;;;;;;;29.40;14.98;;;;;;;4.60;54.41;100872.72;5007703;28;20725;-70
2021/03/10 18:08:32;;;;;;;35.75;15.88;;;;;;;4.36;55.22;100873.97;5016909;28;20034;-70
2021/03/10 18:10:57;;;;;;;29.13;15.57;;;;;;;4.33;55.27;100868.81;5013136;28;20091;-70
2021/03/10 18:13:23;;;;;;;32.53;13.98;;;;;;;4.36;54.78;100853.25;5020047;28;20038;-71
2021/03/10 18:15:49;;;;;;;32.50;14.15;;;;;;;4.29;55.07;100856.78;5015789;28;20576;-70
2021/03/10 18:18:15;;;;;;;30.15;14.68;;;;;;;4.64;54.28;100842.47;5016845;28;20038;-71
2021/03/10 18:20:41;;;;;;;28.17;12.70;;;;;;;4.65;54.22;100844.19;5015283;28;20033;-70
2021/03/10 18:23:06;;;;;;;25.73;13.15;;;;;;;4.09;55.46;100838.09;5017683;28;20041;-70
2021/03/10 18:25:32;;;;;;;25.15;12.35;;;;;;;4.40;54.45;100833.34;5012824;28;20038;-70
2021/03/10 18:27:59;;;;;;;27.98;12.25;;;;;;;4.34;54.71;100829.13;5013210;28;20036;-70
2021/03/10 18:30:24;;;;;;;24.90;12.07;;;;;;;4.13;54.95;100826.84;5004703;28;20037;-69
2021/03/10 18:32:50;;;;;;;25.85;11.75;;;;;;;4.14;54.92;100816.50;5016478;28;20038;-70
2021/03/10 18:35:22;;;;;;;25.02;12.35;;;;;;;3.92;55.40;100822.84;5015257;28;20038;-70
2021/03/10 18:37:51;;;;;;;25.88;13.43;;;;;;;4.15;55.33;100802.66;5015637;28;20073;-70
2021/03/10 18:40:18;;;;;;;28.77;12.35;;;;;;;4.15;54.99;100807.00;5012231;28;20052;-70
2021/03/10 18:42:43;;;;;;;30.60;13.18;;;;;;;4.22;54.81;100795.66;5001501;28;20098;-69
2021/03/10 18:45:10;;;;;;;25.05;12.32;;;;;;;4.02;55.38;100794.22;5012635;28;20034;-70
2021/03/10 18:47:36;;;;;;;24.35;12.82;;;;;;;4.32;54.03;100780.84;5012371;28;20045;-70
2021/03/10 18:50:02;;;;;;;22.67;11.18;;;;;;;4.21;54.53;100781.03;5021652;28;20029;-72
2021/03/10 18:52:28;;;;;;;26.63;11.88;;;;;;;4.08;54.64;100769.16;4991980;28;20405;-68
2021/03/10 18:54:54;;;;;;;30.30;12.38;;;;;;;3.83;55.63;100754.00;5012119;28;20025;-72
2021/03/10 18:57:19;;;;;;;25.95;11.80;;;;;;;4.08;54.62;100748.47;5017433;28;20029;-72
2021/03/10 18:59:45;;;;;;;29.48;11.85;;;;;;;4.46;53.77;100744.41;5002965;28;20870;-71
2021/03/10 19:02:11;;;;;;;27.30;13.20;;;;;;;4.34;54.43;100735.97;5002227;28;20038;-71
2021/03/10 19:04:37;;;;;;;26.42;11.68;;;;;;;4.43;53.97;100737.53;5011474;28;20049;-70
2021/03/10 19:07:03;;;;;;;25.27;11.55;;;;;;;4.24;54.09;100731.81;5010681;28;20102;-69
2021/03/10 19:09:31;;;;;;;24.27;11.45;;;;;;;4.18;54.48;100717.22;5011730;28;20026;-71
2021/03/10 19:11:56;;;;;;;27.92;11.38;;;;;;;4.40;53.49;100717.75;5014867;28;20100;-70
2021/03/10 19:14:22;;;;;;;27.17;11.77;;;;;;;4.26;54.19;100711.09;5011708;28;20029;-71
2021/03/10 19:16:47;;;;;;;25.30;10.98;;;;;;;3.86;54.95;100702.22;4997234;28;20405;-70
2021/03/10 19:19:13;;;;;;;29.13;10.95;;;;;;;4.49;53.74;100692.59;5008416;28;20029;-71
2021/03/10 19:21:38;;;;;;;26.77;12.88;;;;;;;4.41;53.63;100685.81;5010338;28;20053;-71
2021/03/10 19:24:07;;;;;;;27.35;13.35;;;;;;;4.70;53.36;100687.03;5011734;28;20036;-71
2021/03/10 19:26:33;;;;;;;28.83;12.10;;;;;;;4.72;53.20;100661.09;4998359;28;20046;-70
2021/03/10 19:28:59;;;;;;;21.70;12.00;;;;;;;4.79;52.82;100660.97;5014777;28;20033;-70
2021/03/10 19:31:24;;;;;;;29.55;12.55;;;;;;;4.70;52.80;100655.09;5011849;28;20135;-70
2021/03/10 19:33:50;;;;;;;23.25;12.05;;;;;;;4.89;52.78;100648.72;5003566;28;20128;-70
2021/03/10 19:36:15;;;;;;;23.65;11.85;;;;;;;4.79;52.94;100635.09;5002769;28;20585;-70